Reinholds, PA (17569)

3:29 PM EDT on September 03, 2015 (GMT -0400)
George's Weather Hut | | Change Station
CLOSE
Current Station
Personal Weather Station
Location: Reinholds, PA
Elevation: 480 ft
Nearby Weather Stations

Elev 480 ft 40.27 °N, 76.11 °W | Updated 6 minutes ago

Clear
Clear
91.5 °F
Feels Like 98 °F
N
0.0
Wind Variable Wind from NNE
Gusts 0.0 mph

Today
High -- | Low -- °F
--% Chance of Precip.
Yesterday
High -- | Low -- °F
Precip. -- in
6:33 AM 7:33 PM
Waning Gibbous, 67% visible
Pressure 29.87 in
Visibility 10.0 miles
Clouds Scattered Clouds 5500 ft
Heat Index 98 °F
Dew Point 71 °F
Humidity 51%
Rainfall 0.00 in
Snow Depth Not available.
UV 6 out of 12
Pollen 10.20 out of 12
Air Quality Not available.
Flu Activity Not available.
METAR KRDG 031854Z VRB04KT 10SM SCT055 32/18 A2987 RMK AO2 SLP115 T03220178
Pressure 29.87 in
Visibility 10.0 miles
Clouds Scattered Clouds 5500 ft
Heat Index 98 °F
Dew Point 71 °F
Humidity 51%
Rainfall 0.00 in
Snow Depth Not available.
UV 6 out of 12
Pollen 10.20 out of 12
Air Quality Not available.
Flu Activity Not available.
METAR KRDG 031854Z VRB04KT 10SM SCT055 32/18 A2987 RMK AO2 SLP115 T03220178

10-Day Weather Forecast

×

Almanac

Astronomy

Sep. 03, 2015 Rise Set
Actual Time
Civil Twilight
Nautical Twilight
Astronomical Twilight
Moon
Length of Visible Light
Length of Day
Tomorrow will be .
, % of the Moon is Illuminated

Today's Extremes

State Highs State Lows

Community

WunderPhotos

Upload Photos

1,852,014 photos uploaded!

WunderBlogs® & News

Nearby

Air Quality

  Air Quality AQ Index Pollutant
Not available.

Snow Depth

Station Depth Elevation

Earthquake Activity

City Distance Mag. Time & Date
Minimum magnitude displayed is 2.5.

Coastal Water Temperatures

Place Temperature

Stations

Nearby Weather Stations

Station Location Temp. Windchill Dew Point Humidity Wind Precip. Elev Updated Type